Wetterdaten: Sonntag, 05.01.2014
Datum Zeit Temperatur Luftfeuchte Luftdruck Regen Wind Richtung Richtung Taupunkt Windchill Windben
05.01.2014 00:00 2,5 C 97 % 1003,2 hPa 0,0 l/m 1,6 km/h (1 Bft) W 270 2,1 C 2,8 C 5,5 km/h (1 Bft)
05.01.2014 00:05 2,4 C 97 % 1003,1 hPa 0,0 l/m 2,6 km/h (1 Bft) W-NW 292 2,0 C 2,9 C 3,4 km/h (1 Bft)
05.01.2014 00:10 2,6 C 97 % 1003,1 hPa 0,0 l/m 3,1 km/h (1 Bft) W-SW 247 2,2 C 2,9 C 7,2 km/h (2 Bft)
05.01.2014 00:15 2,8 C 97 % 1003,1 hPa 0,0 l/m 2,6 km/h (1 Bft) S-SO 157 2,4 C 3,3 C 3,4 km/h (1 Bft)
05.01.2014 00:20 2,5 C 97 % 1003,1 hPa 0,0 l/m 2,6 km/h (1 Bft) NW 315 2,1 C 3,4 C 3,2 km/h (1 Bft)
05.01.2014 00:25 2,7 C 97 % 1002,6 hPa 0,0 l/m 2,4 km/h (1 Bft) N-NW 337 2,3 C 3,4 C 3,4 km/h (1 Bft)
05.01.2014 00:30 2,7 C 97 % 1002,6 hPa 0,0 l/m 1,8 km/h (1 Bft) S-SO 157 2,3 C 3,4 C 0,0 km/h (0 Bft)
05.01.2014 00:35 2,6 C 97 % 1002,6 hPa 0,0 l/m 1,1 km/h (1 Bft) N-NO 22 2,2 C 3,4 C 1,8 km/h (1 Bft)
05.01.2014 00:40 2,8 C 97 % 1002,6 hPa 0,0 l/m 1,3 km/h (1 Bft) N 360 2,4 C 3,4 C 2,7 km/h (1 Bft)
05.01.2014 00:45 2,7 C 97 % 1002,6 hPa 0,0 l/m 1,4 km/h (1 Bft) W-NW 292 2,3 C 3,4 C 0,0 km/h (0 Bft)
05.01.2014 00:50 2,8 C 97 % 1002,6 hPa 0,0 l/m 1,4 km/h (1 Bft) W-SW 247 2,4 C 3,4 C 3,9 km/h (1 Bft)
05.01.2014 00:55 2,9 C 97 % 1002,6 hPa 0,0 l/m 1,8 km/h (1 Bft) N-NW 337 2,5 C 3,6 C 2,1 km/h (1 Bft)
05.01.2014 01:00 3,1 C 96 % 1002,6 hPa 0,0 l/m 3,1 km/h (1 Bft) N-NO 22 2,5 C 3,6 C 5,0 km/h (1 Bft)
05.01.2014 01:05 2,9 C 97 % 1002,5 hPa 0,0 l/m 3,1 km/h (1 Bft) NO 45 2,5 C 3,8 C 4,2 km/h (1 Bft)
05.01.2014 01:10 3,0 C 96 % 1002,5 hPa 0,0 l/m 2,6 km/h (1 Bft) O-NO 67 2,4 C 4,0 C 5,6 km/h (1 Bft)
05.01.2014 01:15 2,9 C 97 % 1002,5 hPa 0,0 l/m 2,1 km/h (1 Bft) N-NO 22 2,5 C 4,0 C 0,0 km/h (0 Bft)
05.01.2014 01:20 3,3 C 96 % 1002,5 hPa 0,0 l/m 2,6 km/h (1 Bft) N-NO 22 2,7 C 4,0 C 3,5 km/h (1 Bft)
05.01.2014 01:25 3,4 C 96 % 1002,4 hPa 0,0 l/m 3,2 km/h (1 Bft) N-NO 22 2,8 C 3,9 C 5,8 km/h (2 Bft)
05.01.2014 01:30 3,5 C 96 % 1002,4 hPa 0,0 l/m 5,0 km/h (1 Bft) N 360 2,9 C 3,2 C 7,6 km/h (2 Bft)
05.01.2014 01:35 3,5 C 96 % 1002,4 hPa 0,0 l/m 5,6 km/h (1 Bft) N 360 2,9 C 3,0 C 6,3 km/h (2 Bft)
05.01.2014 01:40 3,5 C 96 % 1002,4 hPa 0,0 l/m 5,1 km/h (1 Bft) N 360 2,9 C 3,3 C 5,0 km/h (1 Bft)
05.01.2014 01:45 3,5 C 96 % 1002,1 hPa 0,0 l/m 5,1 km/h (1 Bft) NO 45 2,9 C 3,3 C 7,1 km/h (2 Bft)
05.01.2014 01:50 3,5 C 96 % 1002,1 hPa 0,0 l/m 4,5 km/h (1 Bft) N-NO 22 2,9 C 3,8 C 5,0 km/h (1 Bft)
05.01.2014 01:55 3,5 C 96 % 1002,1 hPa 0,0 l/m 3,5 km/h (1 Bft) W 270 2,9 C 4,3 C 3,5 km/h (1 Bft)
05.01.2014 02:00 3,7 C 97 % 1002,1 hPa 0,0 l/m 2,3 km/h (1 Bft) W-SW 247 3,3 C 4,8 C 1,6 km/h (1 Bft)
05.01.2014 02:05 3,5 C 97 % 1002,4 hPa 0,0 l/m 1,9 km/h (1 Bft) S-SW 202 3,1 C 4,8 C 1,9 km/h (1 Bft)
05.01.2014 02:10 3,3 C 96 % 1002,4 hPa 0,0 l/m 1,0 km/h (0 Bft) N-NW 337 2,7 C 4,6 C 2,1 km/h (1 Bft)
05.01.2014 02:15 3,3 C 96 % 1002,4 hPa 0,0 l/m 1,0 km/h (0 Bft) O-NO 67 2,7 C 4,5 C 2,3 km/h (1 Bft)
05.01.2014 02:20 3,4 C 97 % 1002,4 hPa 0,0 l/m 1,3 km/h (1 Bft) N 360 3,0 C 4,4 C 0,0 km/h (0 Bft)
05.01.2014 02:25 3,3 C 96 % 1002,4 hPa 0,0 l/m 1,3 km/h (1 Bft) W-SW 247 2,7 C 4,4 C 0,0 km/h (0 Bft)
05.01.2014 02:29 3,1 C 96 % 1002,4 hPa 0,0 l/m 0,5 km/h (0 Bft) W 270 2,5 C 4,2 C 2,1 km/h (1 Bft)
05.01.2014 02:30 3,1 C 96 % 1002,4 hPa 0,0 l/m 0,5 km/h (0 Bft) W 270 2,5 C 4,2 C 2,1 km/h (1 Bft)
05.01.2014 02:35 3,1 C 96 % 1002,4 hPa 0,0 l/m 0,5 km/h (0 Bft) W-NW 292 2,5 C 4,1 C 2,3 km/h (1 Bft)
05.01.2014 02:40 3,2 C 96 % 1002,4 hPa 0,0 l/m 1,0 km/h (0 Bft) NO 45 2,6 C 4,1 C 0,0 km/h (0 Bft)
05.01.2014 02:45 3,3 C 96 % 1002,5 hPa 0,0 l/m 0,8 km/h (0 Bft) NO 45 2,7 C 4,2 C 0,0 km/h (0 Bft)
05.01.2014 02:50 3,5 C 97 % 1002,5 hPa 0,0 l/m 0,8 km/h (0 Bft) S 180 3,1 C 4,3 C 4,5 km/h (1 Bft)
05.01.2014 02:55 3,9 C 97 % 1002,5 hPa 0,0 l/m 1,6 km/h (1 Bft) NO 45 3,5 C 4,5 C 0,0 km/h (0 Bft)
05.01.2014 03:00 3,7 C 96 % 1002,5 hPa 0,0 l/m 2,3 km/h (1 Bft) N-NO 22 3,1 C 4,5 C 4,2 km/h (1 Bft)
05.01.2014 03:05 3,5 C 96 % 1002,7 hPa 0,0 l/m 1,6 km/h (1 Bft) N-NO 22 2,9 C 4,4 C 0,0 km/h (0 Bft)
05.01.2014 03:10 3,2 C 96 % 1002,7 hPa 0,0 l/m 1,3 km/h (1 Bft) N-NO 22 2,6 C 4,2 C 0,0 km/h (0 Bft)
05.01.2014 03:15 3,2 C 96 % 1002,7 hPa 0,0 l/m 1,0 km/h (0 Bft) NO 45 2,6 C 4,1 C 1,8 km/h (1 Bft)
05.01.2014 03:20 3,2 C 96 % 1002,7 hPa 0,0 l/m 1,0 km/h (0 Bft) N-NO 22 2,6 C 4,1 C 0,0 km/h (0 Bft)
05.01.2014 03:25 3,0 C 96 % 1002,3 hPa 0,0 l/m 1,0 km/h (0 Bft) N 360 2,4 C 4,0 C 3,1 km/h (1 Bft)
05.01.2014 03:30 2,9 C 97 % 1002,3 hPa 0,0 l/m 2,1 km/h (1 Bft) S 180 2,5 C 3,8 C 7,1 km/h (2 Bft)
05.01.2014 03:35 2,7 C 97 % 1002,3 hPa 0,0 l/m 3,4 km/h (1 Bft) S 180 2,3 C 3,4 C 4,8 km/h (1 Bft)
05.01.2014 03:40 3,0 C 96 % 1002,3 hPa 0,0 l/m 4,2 km/h (1 Bft) O 90 2,4 C 3,0 C 4,2 km/h (1 Bft)
05.01.2014 03:45 3,7 C 96 % 1002,7 hPa 0,0 l/m 4,3 km/h (1 Bft) O 90 3,1 C 3,1 C 5,5 km/h (1 Bft)
05.01.2014 03:50 3,7 C 96 % 1002,7 hPa 0,0 l/m 4,3 km/h (1 Bft) O 90 3,1 C 3,6 C 4,8 km/h (1 Bft)
05.01.2014 03:55 3,4 C 96 % 1002,7 hPa 0,0 l/m 3,2 km/h (1 Bft) S-SO 157 2,8 C 4,1 C 1,9 km/h (1 Bft)
05.01.2014 04:00 3,0 C 96 % 1002,7 hPa 0,0 l/m 1,8 km/h (1 Bft) N 360 2,4 C 4,1 C 0,0 km/h (0 Bft)
05.01.2014 04:05 2,9 C 97 % 1002,7 hPa 0,0 l/m 0,5 km/h (0 Bft) NO 45 2,5 C 3,7 C 0,0 km/h (0 Bft)
05.01.2014 04:10 3,0 C 96 % 1002,7 hPa 0,0 l/m 0,8 km/h (0 Bft) S 180 2,4 C 3,6 C 1,6 km/h (1 Bft)
05.01.2014 04:15 2,9 C 97 % 1002,7 hPa 0,0 l/m 1,8 km/h (1 Bft) O-SO 112 2,5 C 3,6 C 2,4 km/h (1 Bft)
05.01.2014 04:20 3,3 C 96 % 1002,7 hPa 0,0 l/m 3,4 km/h (1 Bft) S-SW 202 2,7 C 3,4 C 4,3 km/h (1 Bft)
05.01.2014 04:25 3,1 C 96 % 1003,3 hPa 0,0 l/m 3,7 km/h (1 Bft) S 180 2,5 C 3,6 C 4,2 km/h (1 Bft)
05.01.2014 04:30 3,2 C 96 % 1003,3 hPa 0,0 l/m 4,8 km/h (1 Bft) S 180 2,6 C 3,3 C 9,5 km/h (2 Bft)
05.01.2014 04:35 3,4 C 96 % 1003,3 hPa 0,0 l/m 5,5 km/h (1 Bft) S-SO 157 2,8 C 3,1 C 7,6 km/h (2 Bft)
05.01.2014 04:40 3,3 C 96 % 1003,3 hPa 0,0 l/m 5,8 km/h (2 Bft) S 180 2,7 C 3,2 C 11,7 km/h (2 Bft)
05.01.2014 04:45 3,3 C 96 % 1004,0 hPa 0,0 l/m 6,0 km/h (2 Bft) O-SO 112 2,7 C 3,0 C 7,1 km/h (2 Bft)
05.01.2014 04:50 3,4 C 96 % 1004,0 hPa 0,0 l/m 7,1 km/h (2 Bft) SO 135 2,8 C 2,0 C 13,4 km/h (3 Bft)
05.01.2014 04:55 3,7 C 96 % 1004,0 hPa 0,0 l/m 8,0 km/h (2 Bft) S-SO 157 3,1 C 1,2 C 13,4 km/h (3 Bft)
05.01.2014 05:00 4,2 C 96 % 1004,0 hPa 0,0 l/m 11,9 km/h (2 Bft) S 180 3,6 C -1,9 C 22,5 km/h (4 Bft)
05.01.2014 05:05 4,5 C 95 % 1004,4 hPa 0,0 l/m 15,0 km/h (3 Bft) S-SW 202 3,8 C -4,3 C 19,0 km/h (3 Bft)
05.01.2014 05:10 4,4 C 94 % 1004,4 hPa 0,0 l/m 17,5 km/h (3 Bft) S 180 3,5 C -6,4 C 37,7 km/h (5 Bft)
05.01.2014 05:15 4,4 C 94 % 1004,4 hPa 0,0 l/m 17,7 km/h (3 Bft) S 180 3,5 C -6,5 C 18,3 km/h (3 Bft)
05.01.2014 05:20 4,4 C 93 % 1004,4 hPa 0,0 l/m 17,1 km/h (3 Bft) S 180 3,4 C -6,1 C 15,0 km/h (3 Bft)
05.01.2014 05:25 4,3 C 92 % 1004,9 hPa 0,0 l/m 15,6 km/h (3 Bft) S-SO 157 3,1 C -5,1 C 21,6 km/h (4 Bft)
05.01.2014 05:30 4,1 C 92 % 1004,9 hPa 0,0 l/m 13,2 km/h (3 Bft) S 180 2,9 C -3,5 C 15,8 km/h (3 Bft)
05.01.2014 05:35 4,0 C 91 % 1004,9 hPa 0,0 l/m 11,6 km/h (2 Bft) S 180 2,7 C -2,2 C 12,9 km/h (3 Bft)
05.01.2014 05:40 3,9 C 92 % 1004,9 hPa 0,0 l/m 9,7 km/h (2 Bft) S 180 2,7 C -0,6 C 10,0 km/h (2 Bft)
05.01.2014 05:45 3,9 C 92 % 1005,6 hPa 0,0 l/m 10,1 km/h (2 Bft) S-SW 202 2,7 C -1,1 C 8,7 km/h (2 Bft)
05.01.2014 05:50 3,8 C 92 % 1005,6 hPa 0,0 l/m 10,5 km/h (2 Bft) SW 225 2,6 C -1,8 C 11,6 km/h (2 Bft)
05.01.2014 05:55 3,7 C 92 % 1005,6 hPa 0,0 l/m 10,5 km/h (2 Bft) W-SW 247 2,5 C -2,1 C 23,2 km/h (4 Bft)
05.01.2014 06:00 3,6 C 92 % 1005,6 hPa 0,0 l/m 11,4 km/h (2 Bft) S-SW 202 2,4 C -3,0 C 8,9 km/h (2 Bft)
05.01.2014 06:05 3,6 C 92 % 1006,1 hPa 0,0 l/m 12,4 km/h (3 Bft) S-SO 157 2,4 C -4,0 C 19,5 km/h (3 Bft)
05.01.2014 06:10 3,4 C 92 % 1006,1 hPa 0,0 l/m 9,2 km/h (2 Bft) S-SW 202 2,2 C -0,9 C 10,0 km/h (2 Bft)
05.01.2014 06:15 3,3 C 92 % 1006,1 hPa 0,0 l/m 9,5 km/h (2 Bft) O-SO 112 2,1 C -1,6 C 20,3 km/h (4 Bft)
05.01.2014 06:20 3,1 C 92 % 1006,1 hPa 0,0 l/m 12,1 km/h (2 Bft) S 180 1,9 C -4,6 C 14,5 km/h (3 Bft)
05.01.2014 06:25 3,0 C 91 % 1006,8 hPa 0,0 l/m 12,6 km/h (3 Bft) S-SW 202 1,7 C -5,2 C 10,1 km/h (2 Bft)
05.01.2014 06:30 2,9 C 92 % 1006,8 hPa 0,0 l/m 12,6 km/h (3 Bft) SO 135 1,7 C -5,3 C 15,1 km/h (3 Bft)
05.01.2014 06:35 2,7 C 92 % 1006,8 hPa 0,0 l/m 11,6 km/h (2 Bft) S-SW 202 1,5 C -4,6 C 7,7 km/h (2 Bft)
05.01.2014 06:40 2,7 C 93 % 1006,8 hPa 0,0 l/m 9,5 km/h (2 Bft) S-SO 157 1,7 C -2,7 C 16,9 km/h (3 Bft)
05.01.2014 06:45 2,6 C 93 % 1007,3 hPa 0,0 l/m 10,0 km/h (2 Bft) S 180 1,6 C -3,2 C 12,2 km/h (2 Bft)
05.01.2014 06:50 2,5 C 93 % 1007,3 hPa 0,0 l/m 11,1 km/h (2 Bft) W 270 1,5 C -4,7 C 16,4 km/h (3 Bft)
05.01.2014 06:55 2,5 C 93 % 1007,3 hPa 0,0 l/m 10,0 km/h (2 Bft) S-SO 157 1,5 C -3,5 C 10,1 km/h (2 Bft)
05.01.2014 07:00 2,4 C 93 % 1007,3 hPa 0,0 l/m 8,2 km/h (2 Bft) S 180 1,4 C -1,4 C 10,0 km/h (2 Bft)
05.01.2014 07:05 2,5 C 93 % 1007,9 hPa 0,0 l/m 8,7 km/h (2 Bft) S 180 1,5 C -2,0 C 10,1 km/h (2 Bft)
05.01.2014 07:10 2,4 C 94 % 1007,9 hPa 0,0 l/m 9,7 km/h (2 Bft) S 180 1,5 C -3,1 C 13,8 km/h (3 Bft)
05.01.2014 07:15 2,5 C 94 % 1007,9 hPa 0,0 l/m 8,7 km/h (2 Bft) S-SO 157 1,6 C -2,0 C 8,0 km/h (2 Bft)
05.01.2014 07:20 2,5 C 94 % 1007,9 hPa 0,0 l/m 9,0 km/h (2 Bft) S 180 1,6 C -2,3 C 7,2 km/h (2 Bft)
05.01.2014 07:25 2,4 C 94 % 1008,2 hPa 0,0 l/m 9,0 km/h (2 Bft) S-SO 157 1,5 C -2,4 C 8,4 km/h (2 Bft)
05.01.2014 07:30 2,4 C 94 % 1008,2 hPa 0,0 l/m 9,0 km/h (2 Bft) S 180 1,5 C -2,4 C 8,5 km/h (2 Bft)
05.01.2014 07:35 2,4 C 94 % 1008,2 hPa 0,0 l/m 10,1 km/h (2 Bft) S-SW 202 1,5 C -3,6 C 11,9 km/h (2 Bft)
05.01.2014 07:40 2,4 C 94 % 1008,2 hPa 0,0 l/m 10,0 km/h (2 Bft) S 180 1,5 C -3,6 C 13,4 km/h (3 Bft)
05.01.2014 07:45 2,4 C 94 % 1008,5 hPa 0,0 l/m 9,3 km/h (2 Bft) S-SO 157 1,5 C -2,7 C 12,7 km/h (3 Bft)
05.01.2014 07:50 2,3 C 94 % 1008,5 hPa 0,0 l/m 8,7 km/h (2 Bft) W-SW 247 1,4 C -2,1 C 7,9 km/h (2 Bft)
05.01.2014 07:55 2,3 C 94 % 1008,5 hPa 0,0 l/m 8,0 km/h (2 Bft) S-SO 157 1,4 C -1,3 C 7,1 km/h (2 Bft)
05.01.2014 08:00 2,3 C 94 % 1008,5 hPa 0,0 l/m 8,5 km/h (2 Bft) S 180 1,4 C -1,9 C 16,1 km/h (3 Bft)
05.01.2014 08:05 2,3 C 94 % 1009,2 hPa 0,0 l/m 10,8 km/h (2 Bft) S-SO 157 1,4 C -4,7 C 20,6 km/h (4 Bft)
05.01.2014 08:10 2,3 C 94 % 1009,2 hPa 0,0 l/m 13,5 km/h (3 Bft) S-SW 202 1,4 C -7,3 C 11,4 km/h (2 Bft)
05.01.2014 08:15 2,1 C 94 % 1009,2 hPa 0,0 l/m 13,2 km/h (3 Bft) O-SO 112 1,2 C -7,0 C 13,5 km/h (3 Bft)
05.01.2014 08:20 2,1 C 94 % 1009,2 hPa 0,0 l/m 10,1 km/h (2 Bft) S 180 1,2 C -4,1 C 8,9 km/h (2 Bft)
05.01.2014 08:25 2,0 C 94 % 1009,6 hPa 0,0 l/m 9,8 km/h (2 Bft) O-SO 112 1,1 C -3,9 C 9,3 km/h (2 Bft)
05.01.2014 08:28 2,0 C 94 % 1009,6 hPa 0,0 l/m 10,1 km/h (2 Bft) S 180 1,1 C -4,2 C 11,6 km/h (2 Bft)
05.01.2014 08:30 2,0 C 94 % 1009,6 hPa 0,0 l/m 10,1 km/h (2 Bft) S 180 1,1 C -4,2 C 11,6 km/h (2 Bft)
05.01.2014 08:35 2,0 C 94 % 1009,6 hPa 0,0 l/m 10,1 km/h (2 Bft) S 180 1,1 C -4,2 C 7,7 km/h (2 Bft)
05.01.2014 08:40 2,0 C 94 % 1009,6 hPa 0,0 l/m 9,8 km/h (2 Bft) SO 135 1,1 C -3,9 C 12,1 km/h (2 Bft)
05.01.2014 08:45 2,0 C 94 % 1009,9 hPa 0,0 l/m 8,7 km/h (2 Bft) SO 135 1,1 C -2,5 C 8,4 km/h (2 Bft)
05.01.2014 08:50 2,0 C 94 % 1009,9 hPa 0,0 l/m 8,9 km/h (2 Bft) S 180 1,1 C -2,8 C 13,2 km/h (3 Bft)
05.01.2014 08:55 2,0 C 94 % 1009,9 hPa 0,0 l/m 8,7 km/h (2 Bft) S 180 1,1 C -2,5 C 5,8 km/h (2 Bft)
05.01.2014 09:00 2,0 C 94 % 1009,9 hPa 0,0 l/m 7,2 km/h (2 Bft) S 180 1,1 C -0,6 C 6,6 km/h (2 Bft)
05.01.2014 09:05 2,0 C 94 % 1010,2 hPa 0,0 l/m 6,1 km/h (2 Bft) S-SO 157 1,1 C 0,6 C 6,8 km/h (2 Bft)
05.01.2014 09:10 2,1 C 95 % 1010,2 hPa 0,0 l/m 5,1 km/h (1 Bft) S-SO 157 1,4 C 0,9 C 7,6 km/h (2 Bft)
05.01.2014 09:15 2,1 C 95 % 1010,2 hPa 0,0 l/m 5,5 km/h (1 Bft) S 180 1,4 C 0,8 C 8,5 km/h (2 Bft)
05.01.2014 09:20 2,0 C 95 % 1010,2 hPa 0,0 l/m 6,4 km/h (2 Bft) O-SO 112 1,3 C 0,4 C 5,0 km/h (1 Bft)
05.01.2014 09:25 2,0 C 95 % 1010,5 hPa 0,0 l/m 5,6 km/h (1 Bft) S-SO 157 1,3 C 0,7 C 3,2 km/h (1 Bft)
05.01.2014 09:30 2,1 C 95 % 1010,5 hPa 0,0 l/m 4,3 km/h (1 Bft) S 180 1,4 C 1,3 C 4,5 km/h (1 Bft)
05.01.2014 09:35 2,1 C 95 % 1010,5 hPa 0,0 l/m 4,5 km/h (1 Bft) S-SO 157 1,4 C 1,3 C 3,5 km/h (1 Bft)
05.01.2014 09:40 2,3 C 95 % 1010,5 hPa 0,0 l/m 5,0 km/h (1 Bft) SO 135 1,6 C 1,2 C 6,4 km/h (2 Bft)
05.01.2014 09:45 2,2 C 95 % 1010,7 hPa 0,0 l/m 5,3 km/h (1 Bft) S 180 1,5 C 1,1 C 6,3 km/h (2 Bft)
05.01.2014 09:50 2,3 C 95 % 1010,7 hPa 0,0 l/m 6,1 km/h (2 Bft) S 180 1,6 C 0,8 C 4,8 km/h (1 Bft)
05.01.2014 09:55 2,2 C 95 % 1010,7 hPa 0,0 l/m 6,3 km/h (2 Bft) S 180 1,5 C 0,7 C 5,6 km/h (1 Bft)
05.01.2014 10:00 2,2 C 95 % 1010,7 hPa 0,0 l/m 6,6 km/h (2 Bft) S 180 1,5 C 0,4 C 12,2 km/h (2 Bft)
05.01.2014 10:05 2,2 C 95 % 1011,0 hPa 0,0 l/m 7,1 km/h (2 Bft) S 180 1,5 C -0,3 C 7,6 km/h (2 Bft)
05.01.2014 10:10 2,2 C 95 % 1011,0 hPa 0,0 l/m 7,7 km/h (2 Bft) O-SO 112 1,5 C -1,0 C 8,0 km/h (2 Bft)
05.01.2014 10:15 2,3 C 95 % 1011,0 hPa 0,0 l/m 7,1 km/h (2 Bft) S 180 1,6 C -0,3 C 9,2 km/h (2 Bft)
05.01.2014 10:20 2,3 C 95 % 1011,0 hPa 0,0 l/m 6,1 km/h (2 Bft) SO 135 1,6 C 0,9 C 7,2 km/h (2 Bft)
05.01.2014 10:25 2,3 C 95 % 1011,4 hPa 0,0 l/m 5,6 km/h (1 Bft) S-SO 157 1,6 C 1,1 C 6,1 km/h (2 Bft)
05.01.2014 10:30 2,3 C 95 % 1011,4 hPa 0,0 l/m 6,1 km/h (2 Bft) SO 135 1,6 C 0,9 C 7,1 km/h (2 Bft)
05.01.2014 10:35 2,3 C 95 % 1011,4 hPa 0,0 l/m 6,8 km/h (2 Bft) S 180 1,6 C 0,3 C 12,1 km/h (2 Bft)
05.01.2014 10:40 2,3 C 95 % 1011,4 hPa 0,0 l/m 6,8 km/h (2 Bft) S 180 1,6 C 0,3 C 7,1 km/h (2 Bft)
05.01.2014 10:45 2,3 C 95 % 1011,6 hPa 0,0 l/m 6,8 km/h (2 Bft) S 180 1,6 C 0,3 C 6,6 km/h (2 Bft)
05.01.2014 10:50 2,3 C 95 % 1011,6 hPa 0,0 l/m 6,6 km/h (2 Bft) O 90 1,6 C 0,5 C 13,2 km/h (3 Bft)
05.01.2014 10:55 2,3 C 95 % 1011,6 hPa 0,0 l/m 6,4 km/h (2 Bft) S-SO 157 1,6 C 0,9 C 6,9 km/h (2 Bft)
05.01.2014 11:00 2,4 C 95 % 1011,6 hPa 0,0 l/m 6,4 km/h (2 Bft) S-SO 157 1,7 C 0,9 C 7,1 km/h (2 Bft)
05.01.2014 11:05 2,4 C 95 % 1011,8 hPa 0,0 l/m 6,1 km/h (2 Bft) SO 135 1,7 C 1,1 C 7,4 km/h (2 Bft)
05.01.2014 11:10 2,4 C 95 % 1011,8 hPa 0,0 l/m 5,8 km/h (2 Bft) S-SO 157 1,7 C 1,2 C 7,6 km/h (2 Bft)
05.01.2014 11:15 2,4 C 95 % 1011,8 hPa 0,0 l/m 6,0 km/h (2 Bft) O 90 1,7 C 1,2 C 4,3 km/h (1 Bft)
05.01.2014 11:20 2,3 C 95 % 1011,8 hPa 0,0 l/m 6,3 km/h (2 Bft) S 180 1,6 C 1,0 C 9,5 km/h (2 Bft)
05.01.2014 11:25 2,3 C 95 % 1012,1 hPa 0,0 l/m 6,3 km/h (2 Bft) S-SO 157 1,6 C 1,0 C 4,8 km/h (1 Bft)
05.01.2014 11:30 2,3 C 95 % 1012,1 hPa 0,0 l/m 6,8 km/h (2 Bft) S 180 1,6 C 0,3 C 10,0 km/h (2 Bft)
05.01.2014 11:35 2,3 C 95 % 1012,1 hPa 0,0 l/m 7,1 km/h (2 Bft) S 180 1,6 C -0,1 C 7,4 km/h (2 Bft)
05.01.2014 11:40 2,3 C 95 % 1012,1 hPa 0,0 l/m 7,2 km/h (2 Bft) S-SO 157 1,6 C -0,2 C 8,4 km/h (2 Bft)
05.01.2014 11:45 2,3 C 95 % 1012,2 hPa 0,0 l/m 7,2 km/h (2 Bft) S 180 1,6 C -0,4 C 6,8 km/h (2 Bft)
05.01.2014 11:50 2,2 C 95 % 1012,2 hPa 0,0 l/m 7,2 km/h (2 Bft) S-SO 157 1,5 C -0,4 C 7,4 km/h (2 Bft)
05.01.2014 11:55 2,2 C 95 % 1012,2 hPa 0,0 l/m 7,7 km/h (2 Bft) S-SO 157 1,5 C -1,0 C 12,4 km/h (3 Bft)
05.01.2014 12:00 2,2 C 95 % 1012,2 hPa 0,0 l/m 7,2 km/h (2 Bft) W-SW 247 1,5 C -0,5 C 8,7 km/h (2 Bft)
05.01.2014 12:05 2,1 C 95 % 1012,5 hPa 0,0 l/m 7,2 km/h (2 Bft) S-SW 202 1,4 C -0,5 C 6,6 km/h (2 Bft)
05.01.2014 12:10 2,1 C 95 % 1012,5 hPa 0,0 l/m 7,1 km/h (2 Bft) S 180 1,4 C -0,5 C 3,9 km/h (1 Bft)
05.01.2014 12:15 2,1 C 95 % 1012,5 hPa 0,0 l/m 7,2 km/h (2 Bft) S-SW 202 1,4 C -0,6 C 7,7 km/h (2 Bft)
05.01.2014 12:20 2,1 C 95 % 1012,5 hPa 0,0 l/m 7,4 km/h (2 Bft) S-SO 157 1,4 C -0,9 C 8,0 km/h (2 Bft)
05.01.2014 12:25 2,1 C 95 % 1012,5 hPa 0,0 l/m 7,7 km/h (2 Bft) S-SO 157 1,4 C -1,3 C 11,6 km/h (2 Bft)
05.01.2014 12:30 2,2 C 95 % 1012,5 hPa 0,0 l/m 7,9 km/h (2 Bft) S 180 1,5 C -1,4 C 10,3 km/h (2 Bft)
05.01.2014 12:35 2,2 C 95 % 1012,5 hPa 0,0 l/m 7,9 km/h (2 Bft) SO 135 1,5 C -1,3 C 6,9 km/h (2 Bft)
05.01.2014 12:40 2,2 C 95 % 1012,5 hPa 0,0 l/m 7,4 km/h (2 Bft) S 180 1,5 C -0,7 C 5,0 km/h (1 Bft)
05.01.2014 12:45 2,3 C 95 % 1012,7 hPa 0,0 l/m 7,6 km/h (2 Bft) S-SW 202 1,6 C -0,9 C 8,5 km/h (2 Bft)
05.01.2014 12:50 2,2 C 95 % 1012,7 hPa 0,0 l/m 7,2 km/h (2 Bft) S 180 1,5 C -0,4 C 7,7 km/h (2 Bft)
05.01.2014 12:55 2,2 C 95 % 1012,7 hPa 0,0 l/m 6,6 km/h (2 Bft) S 180 1,5 C 0,4 C 9,5 km/h (2 Bft)
05.01.2014 13:00 2,3 C 95 % 1012,7 hPa 0,0 l/m 6,6 km/h (2 Bft) S 180 1,6 C 0,4 C 5,6 km/h (1 Bft)
05.01.2014 13:05 2,4 C 95 % 1012,7 hPa 0,0 l/m 6,3 km/h (2 Bft) S-SO 157 1,7 C 0,8 C 6,1 km/h (2 Bft)
05.01.2014 13:10 2,5 C 95 % 1012,7 hPa 0,0 l/m 6,1 km/h (2 Bft) S 180 1,8 C 1,1 C 4,5 km/h (1 Bft)
05.01.2014 13:15 2,5 C 95 % 1012,7 hPa 0,0 l/m 6,1 km/h (2 Bft) O-SO 112 1,8 C 1,1 C 8,9 km/h (2 Bft)
05.01.2014 13:20 2,6 C 95 % 1012,7 hPa 0,0 l/m 5,5 km/h (1 Bft) NW 315 1,9 C 1,3 C 7,4 km/h (2 Bft)
05.01.2014 13:25 2,6 C 95 % 1013,1 hPa 0,0 l/m 5,3 km/h (1 Bft) S-SO 157 1,9 C 1,4 C 5,3 km/h (1 Bft)
05.01.2014 13:30 2,8 C 95 % 1013,1 hPa 0,0 l/m 5,1 km/h (1 Bft) SO 135 2,1 C 1,7 C 9,2 km/h (2 Bft)
05.01.2014 13:35 2,7 C 95 % 1013,1 hPa 0,0 l/m 6,1 km/h (2 Bft) SO 135 2,0 C 1,4 C 9,7 km/h (2 Bft)
05.01.2014 13:40 2,7 C 95 % 1013,1 hPa 0,0 l/m 6,6 km/h (2 Bft) S-SW 202 2,0 C 1,0 C 7,4 km/h (2 Bft)
05.01.2014 13:45 2,6 C 94 % 1013,2 hPa 0,0 l/m 6,9 km/h (2 Bft) S-SW 202 1,7 C 0,6 C 9,0 km/h (2 Bft)
05.01.2014 13:50 2,6 C 94 % 1013,2 hPa 0,0 l/m 6,9 km/h (2 Bft) S 180 1,7 C 0,4 C 7,2 km/h (2 Bft)
05.01.2014 13:55 2,6 C 94 % 1013,2 hPa 0,0 l/m 6,8 km/h (2 Bft) S-SO 157 1,7 C 0,5 C 9,2 km/h (2 Bft)
05.01.2014 14:00 2,5 C 94 % 1013,2 hPa 0,0 l/m 6,6 km/h (2 Bft) S-SO 157 1,6 C 0,7 C 8,2 km/h (2 Bft)
05.01.2014 14:05 2,4 C 94 % 1013,6 hPa 0,0 l/m 6,9 km/h (2 Bft) S 180 1,5 C 0,3 C 7,7 km/h (2 Bft)
05.01.2014 14:10 2,3 C 94 % 1013,6 hPa 0,0 l/m 6,4 km/h (2 Bft) W-SW 247 1,4 C 0,8 C 4,5 km/h (1 Bft)
05.01.2014 14:15 2,4 C 94 % 1013,6 hPa 0,0 l/m 5,1 km/h (1 Bft) SO 135 1,5 C 1,3 C 4,2 km/h (1 Bft)
05.01.2014 14:20 2,4 C 94 % 1013,6 hPa 0,0 l/m 4,5 km/h (1 Bft) S 180 1,5 C 1,7 C 4,5 km/h (1 Bft)
05.01.2014 14:23 2,4 C 94 % 1013,5 hPa 0,0 l/m 5,3 km/h (1 Bft) S-SO 157 1,5 C 1,4 C 7,4 km/h (2 Bft)
05.01.2014 14:25 2,4 C 94 % 1013,5 hPa 0,0 l/m 5,3 km/h (1 Bft) S-SO 157 1,5 C 1,4 C 7,4 km/h (2 Bft)
05.01.2014 14:30 2,5 C 94 % 1013,5 hPa 0,0 l/m 5,6 km/h (1 Bft) S 180 1,6 C 1,2 C 6,4 km/h (2 Bft)
05.01.2014 14:35 2,6 C 94 % 1013,5 hPa 0,0 l/m 5,0 km/h (1 Bft) O-SO 112 1,7 C 1,6 C 5,0 km/h (1 Bft)
05.01.2014 14:40 2,6 C 94 % 1013,5 hPa 0,0 l/m 4,8 km/h (1 Bft) S-SW 202 1,7 C 1,9 C 6,1 km/h (2 Bft)
05.01.2014 14:45 2,5 C 94 % 1013,7 hPa 0,0 l/m 4,8 km/h (1 Bft) O-SO 112 1,6 C 2,1 C 4,2 km/h (1 Bft)
05.01.2014 14:50 2,4 C 94 % 1013,7 hPa 0,0 l/m 3,9 km/h (1 Bft) S 180 1,5 C 3,2 C 6,4 km/h (2 Bft)
05.01.2014 14:55 2,4 C 94 % 1013,7 hPa 0,0 l/m 3,5 km/h (1 Bft) SO 135 1,5 C 3,6 C 7,6 km/h (2 Bft)
05.01.2014 15:00 2,2 C 94 % 1013,7 hPa 0,0 l/m 3,7 km/h (1 Bft) S 180 1,3 C 3,6 C 3,2 km/h (1 Bft)
05.01.2014 15:05 2,0 C 94 % 1013,9 hPa 0,0 l/m 4,0 km/h (1 Bft) O 90 1,1 C 3,5 C 4,8 km/h (1 Bft)
05.01.2014 15:10 1,9 C 95 % 1013,9 hPa 0,0 l/m 3,7 km/h (1 Bft) N-NW 337 1,2 C 3,7 C 2,9 km/h (1 Bft)
05.01.2014 15:15 1,7 C 95 % 1013,9 hPa 0,0 l/m 3,7 km/h (1 Bft) O-SO 112 1,0 C 3,1 C 5,0 km/h (1 Bft)
05.01.2014 15:20 1,6 C 95 % 1013,9 hPa 0,0 l/m 3,5 km/h (1 Bft) S 180 0,9 C 2,3 C 6,1 km/h (2 Bft)
05.01.2014 15:25 1,6 C 95 % 1014,1 hPa 0,0 l/m 3,4 km/h (1 Bft) S-SO 157 0,9 C 2,2 C 6,6 km/h (2 Bft)
05.01.2014 15:30 1,6 C 95 % 1014,1 hPa 0,0 l/m 3,9 km/h (1 Bft) O-SO 112 0,9 C 1,6 C 4,8 km/h (1 Bft)
05.01.2014 15:35 1,6 C 95 % 1014,1 hPa 0,0 l/m 3,7 km/h (1 Bft) O-SO 112 0,9 C 1,6 C 3,9 km/h (1 Bft)
05.01.2014 15:40 1,5 C 95 % 1014,1 hPa 0,0 l/m 3,4 km/h (1 Bft) S-SO 157 0,8 C 1,5 C 5,3 km/h (1 Bft)
05.01.2014 15:45 1,6 C 95 % 1014,5 hPa 0,0 l/m 3,9 km/h (1 Bft) O 90 0,9 C 1,2 C 4,8 km/h (1 Bft)
05.01.2014 15:50 1,8 C 95 % 1014,5 hPa 0,0 l/m 4,5 km/h (1 Bft) S-SO 157 1,1 C 1,2 C 6,9 km/h (2 Bft)
05.01.2014 15:55 1,9 C 95 % 1014,5 hPa 0,0 l/m 4,7 km/h (1 Bft) S-SW 202 1,2 C 1,3 C 6,9 km/h (2 Bft)
05.01.2014 16:00 1,7 C 95 % 1014,5 hPa 0,0 l/m 3,9 km/h (1 Bft) S-SO 157 1,0 C 1,8 C 1,6 km/h (1 Bft)
05.01.2014 16:05 1,7 C 95 % 1014,4 hPa 0,0 l/m 2,9 km/h (1 Bft) O 90 1,0 C 2,2 C 4,2 km/h (1 Bft)
05.01.2014 16:10 1,6 C 95 % 1014,4 hPa 0,0 l/m 1,0 km/h (0 Bft) O-SO 112 0,9 C 2,2 C 0,0 km/h (0 Bft)
05.01.2014 16:15 1,3 C 95 % 1014,4 hPa 0,0 l/m 1,0 km/h (0 Bft) S 180 0,6 C 2,0 C 2,3 km/h (1 Bft)
05.01.2014 16:20 1,1 C 95 % 1014,4 hPa 0,0 l/m 1,1 km/h (1 Bft) SO 135 0,4 C 1,6 C 0,0 km/h (0 Bft)
05.01.2014 16:25 1,2 C 95 % 1014,7 hPa 0,0 l/m 1,8 km/h (1 Bft) O-SO 112 0,5 C 1,4 C 4,8 km/h (1 Bft)
05.01.2014 16:30 1,2 C 96 % 1014,7 hPa 0,0 l/m 3,4 km/h (1 Bft) S 180 0,6 C 0,8 C 3,2 km/h (1 Bft)
05.01.2014 16:35 1,2 C 96 % 1014,7 hPa 0,0 l/m 3,5 km/h (1 Bft) S 180 0,6 C 0,9 C 3,2 km/h (1 Bft)
05.01.2014 16:40 1,3 C 96 % 1014,7 hPa 0,0 l/m 4,0 km/h (1 Bft) S 180 0,7 C 0,7 C 7,1 km/h (2 Bft)
05.01.2014 16:45 1,3 C 96 % 1015,2 hPa 0,0 l/m 5,1 km/h (1 Bft) S-SO 157 0,7 C 0,3 C 7,1 km/h (2 Bft)
05.01.2014 16:50 1,3 C 96 % 1015,2 hPa 0,0 l/m 5,3 km/h (1 Bft) S 180 0,7 C 0,3 C 5,0 km/h (1 Bft)
05.01.2014 16:55 1,5 C 96 % 1015,2 hPa 0,0 l/m 4,8 km/h (1 Bft) NO 45 0,9 C 0,5 C 3,7 km/h (1 Bft)
05.01.2014 17:00 1,4 C 96 % 1015,2 hPa 0,0 l/m 2,7 km/h (1 Bft) SO 135 0,8 C 1,7 C 3,5 km/h (1 Bft)
05.01.2014 17:05 1,4 C 96 % 1015,5 hPa 0,0 l/m 2,4 km/h (1 Bft) O 90 0,8 C 1,8 C 3,2 km/h (1 Bft)
05.01.2014 17:10 1,2 C 96 % 1015,5 hPa 0,0 l/m 2,4 km/h (1 Bft) NO 45 0,6 C 1,6 C 5,5 km/h (1 Bft)
05.01.2014 17:15 1,2 C 96 % 1015,5 hPa 0,0 l/m 2,9 km/h (1 Bft) O-SO 112 0,6 C 1,2 C 6,6 km/h (2 Bft)
05.01.2014 17:20 1,1 C 96 % 1015,5 hPa 0,0 l/m 3,4 km/h (1 Bft) W-SW 247 0,5 C 0,8 C 2,7 km/h (1 Bft)
05.01.2014 17:25 1,1 C 96 % 1015,7 hPa 0,0 l/m 1,9 km/h (1 Bft) N-NO 22 0,5 C 1,4 C 0,0 km/h (0 Bft)
05.01.2014 17:30 1,1 C 96 % 1015,7 hPa 0,0 l/m 1,6 km/h (1 Bft) O 90 0,5 C 1,3 C 0,0 km/h (0 Bft)
05.01.2014 17:35 1,1 C 96 % 1015,7 hPa 0,0 l/m 1,3 km/h (1 Bft) O 90 0,5 C 1,2 C 0,0 km/h (0 Bft)
05.01.2014 17:40 1,2 C 96 % 1015,7 hPa 0,0 l/m 1,9 km/h (1 Bft) O 90 0,6 C 1,2 C 2,9 km/h (1 Bft)
05.01.2014 17:45 1,1 C 96 % 1015,7 hPa 0,0 l/m 3,2 km/h (1 Bft) O 90 0,5 C 0,7 C 3,9 km/h (1 Bft)
05.01.2014 17:50 1,2 C 96 % 1015,7 hPa 0,0 l/m 4,0 km/h (1 Bft) O-SO 112 0,6 C 0,3 C 3,7 km/h (1 Bft)
05.01.2014 17:55 1,2 C 96 % 1015,7 hPa 0,0 l/m 3,7 km/h (1 Bft) O-SO 112 0,6 C 0,5 C 2,4 km/h (1 Bft)
05.01.2014 18:00 1,1 C 96 % 1015,7 hPa 0,0 l/m 1,6 km/h (1 Bft) O 90 0,5 C 1,3 C 2,4 km/h (1 Bft)
05.01.2014 18:05 1,2 C 96 % 1015,9 hPa 0,0 l/m 1,6 km/h (1 Bft) O-NO 67 0,6 C 1,2 C 2,6 km/h (1 Bft)
05.01.2014 18:10 1,2 C 96 % 1015,9 hPa 0,0 l/m 3,4 km/h (1 Bft) O 90 0,6 C 0,7 C 5,3 km/h (1 Bft)
05.01.2014 18:15 1,2 C 96 % 1015,9 hPa 0,0 l/m 4,3 km/h (1 Bft) O 90 0,6 C 0,3 C 5,1 km/h (1 Bft)
05.01.2014 18:20 1,3 C 96 % 1015,9 hPa 0,0 l/m 5,0 km/h (1 Bft) NO 45 0,7 C 0,1 C 3,5 km/h (1 Bft)
05.01.2014 18:25 1,2 C 96 % 1016,1 hPa 0,0 l/m 4,3 km/h (1 Bft) NO 45 0,6 C 0,3 C 7,1 km/h (2 Bft)
05.01.2014 18:30 1,2 C 96 % 1016,1 hPa 0,0 l/m 3,5 km/h (1 Bft) NO 45 0,6 C 0,7 C 3,9 km/h (1 Bft)
05.01.2014 18:35 1,1 C 96 % 1016,1 hPa 0,0 l/m 3,4 km/h (1 Bft) N-NO 22 0,5 C 0,7 C 3,4 km/h (1 Bft)
05.01.2014 18:40 1,0 C 96 % 1016,1 hPa 0,0 l/m 2,3 km/h (1 Bft) NO 45 0,4 C 1,2 C 0,0 km/h (0 Bft)
05.01.2014 18:45 1,0 C 96 % 1016,1 hPa 0,0 l/m 1,3 km/h (1 Bft) NO 45 0,4 C 1,1 C 0,0 km/h (0 Bft)
05.01.2014 18:50 1,0 C 96 % 1016,1 hPa 0,0 l/m 0,8 km/h (0 Bft) NO 45 0,4 C 1,1 C 2,6 km/h (1 Bft)
05.01.2014 18:55 1,0 C 96 % 1016,1 hPa 0,0 l/m 1,1 km/h (1 Bft) NO 45 0,4 C 1,1 C 0,0 km/h (0 Bft)
05.01.2014 19:00 1,0 C 97 % 1016,1 hPa 0,0 l/m 1,1 km/h (1 Bft) O-NO 67 0,6 C 1,0 C 2,3 km/h (1 Bft)
05.01.2014 19:05 0,9 C 97 % 1016,2 hPa 0,0 l/m 0,8 km/h (0 Bft) NO 45 0,5 C 0,9 C 0,0 km/h (0 Bft)
05.01.2014 19:10 0,8 C 97 % 1016,2 hPa 0,0 l/m 0,3 km/h (0 Bft) O 90 0,4 C 0,8 C 0,0 km/h (0 Bft)
05.01.2014 19:15 0,7 C 97 % 1016,2 hPa 0,0 l/m 0,0 km/h (0 Bft) O-SO 112 0,3 C 0,7 C 0,0 km/h (0 Bft)
05.01.2014 19:20 0,8 C 97 % 1016,2 hPa 0,0 l/m 1,3 km/h (1 Bft) O 90 0,4 C 0,7 C 4,5 km/h (1 Bft)
05.01.2014 19:25 0,8 C 97 % 1016,1 hPa 0,0 l/m 1,6 km/h (1 Bft) NO 45 0,4 C 0,8 C 0,0 km/h (0 Bft)
05.01.2014 19:30 0,7 C 97 % 1016,1 hPa 0,0 l/m 1,3 km/h (1 Bft) NO 45 0,3 C 0,7 C 3,1 km/h (1 Bft)
05.01.2014 19:35 0,6 C 97 % 1016,1 hPa 0,0 l/m 1,4 km/h (1 Bft) N-NW 337 0,2 C 0,7 C 1,8 km/h (1 Bft)
05.01.2014 19:40 0,6 C 97 % 1016,1 hPa 0,0 l/m 1,8 km/h (1 Bft) NO 45 0,2 C 0,6 C 2,9 km/h (1 Bft)
05.01.2014 19:45 0,6 C 97 % 1016,4 hPa 0,0 l/m 1,8 km/h (1 Bft) O-SO 112 0,2 C 0,6 C 3,9 km/h (1 Bft)
05.01.2014 19:50 0,6 C 97 % 1016,4 hPa 0,0 l/m 2,3 km/h (1 Bft) O-SO 112 0,2 C 0,5 C 1,8 km/h (1 Bft)
05.01.2014 19:55 0,6 C 97 % 1016,4 hPa 0,0 l/m 1,4 km/h (1 Bft) O-SO 112 0,2 C 0,4 C 0,0 km/h (0 Bft)
05.01.2014 20:00 0,6 C 97 % 1016,4 hPa 0,0 l/m 1,6 km/h (1 Bft) O-NO 67 0,2 C 0,4 C 3,5 km/h (1 Bft)
05.01.2014 20:05 0,6 C 97 % 1016,5 hPa 0,0 l/m 2,4 km/h (1 Bft) O 90 0,2 C 0,5 C 2,6 km/h (1 Bft)
05.01.2014 20:10 0,5 C 97 % 1016,5 hPa 0,0 l/m 1,3 km/h (1 Bft) O 90 0,1 C 0,4 C 1,8 km/h (1 Bft)
05.01.2014 20:15 0,6 C 97 % 1016,5 hPa 0,0 l/m 1,1 km/h (1 Bft) O 90 0,2 C 0,4 C 3,9 km/h (1 Bft)
05.01.2014 20:20 0,7 C 97 % 1016,5 hPa 0,0 l/m 2,7 km/h (1 Bft) O-NO 67 0,3 C 0,4 C 4,3 km/h (1 Bft)
05.01.2014 20:23 0,7 C 97 % 1016,6 hPa 0,0 l/m 3,2 km/h (1 Bft) O-NO 67 0,3 C 0,1 C 3,1 km/h (1 Bft)
05.01.2014 20:25 0,7 C 97 % 1016,6 hPa 0,0 l/m 3,2 km/h (1 Bft) O-NO 67 0,3 C 0,1 C 3,1 km/h (1 Bft)
05.01.2014 20:30 0,7 C 97 % 1016,6 hPa 0,0 l/m 3,1 km/h (1 Bft) NO 45 0,3 C 0,3 C 3,4 km/h (1 Bft)
05.01.2014 20:35 0,7 C 97 % 1016,6 hPa 0,0 l/m 2,4 km/h (1 Bft) O-NO 67 0,3 C 0,7 C 0,0 km/h (0 Bft)
05.01.2014 20:40 0,5 C 97 % 1016,6 hPa 0,0 l/m 2,1 km/h (1 Bft) SO 135 0,1 C 0,6 C 3,7 km/h (1 Bft)
05.01.2014 20:45 0,5 C 97 % 1016,9 hPa 0,0 l/m 1,8 km/h (1 Bft) O-SO 112 0,1 C 0,5 C 0,0 km/h (0 Bft)
05.01.2014 20:50 0,6 C 97 % 1016,9 hPa 0,0 l/m 0,8 km/h (0 Bft) O 90 0,2 C 0,4 C 0,0 km/h (0 Bft)
05.01.2014 20:55 0,4 C 97 % 1016,9 hPa 0,0 l/m 0,2 km/h (0 Bft) W-NW 292 -0,0 C 0,4 C 1,8 km/h (1 Bft)
05.01.2014 21:00 0,0 C 97 % 1016,9 hPa 0,0 l/m 0,0 km/h (0 Bft) W-NW 292 -0,4 C 0,1 C 0,0 km/h (0 Bft)
05.01.2014 21:05 0,0 C 97 % 1016,9 hPa 0,0 l/m 0,0 km/h (0 Bft) W-NW 292 -0,4 C -0,1 C 0,0 km/h (0 Bft)
05.01.2014 21:10 0,2 C 97 % 1016,9 hPa 0,0 l/m 0,5 km/h (0 Bft) O 90 -0,2 C -0,1 C 0,0 km/h (0 Bft)
05.01.2014 21:15 0,1 C 97 % 1016,9 hPa 0,0 l/m 0,5 km/h (0 Bft) NO 45 -0,3 C 0,0 C 0,0 km/h (0 Bft)
05.01.2014 21:20 0,2 C 97 % 1016,9 hPa 0,0 l/m 0,0 km/h (0 Bft) N-NO 22 -0,2 C -0,1 C 0,0 km/h (0 Bft)
05.01.2014 21:25 0,1 C 97 % 1016,9 hPa 0,0 l/m 0,0 km/h (0 Bft) NO 45 -0,3 C -0,1 C 0,0 km/h (0 Bft)
05.01.2014 21:30 -0,1 C 97 % 1016,9 hPa 0,0 l/m 0,0 km/h (0 Bft) N-NO 22 -0,5 C -0,2 C 0,0 km/h (0 Bft)
05.01.2014 21:35 -0,2 C 97 % 1016,9 hPa 0,0 l/m 0,0 km/h (0 Bft) N-NO 22 -0,6 C -0,3 C 0,0 km/h (0 Bft)
05.01.2014 21:40 -0,4 C 97 % 1016,9 hPa 0,0 l/m 0,0 km/h (0 Bft) NO 45 -0,8 C -0,5 C 0,0 km/h (0 Bft)
05.01.2014 21:45 -0,1 C 97 % 1016,7 hPa 0,0 l/m 0,0 km/h (0 Bft) N 360 -0,5 C -0,4 C 0,0 km/h (0 Bft)
05.01.2014 21:50 -0,3 C 97 % 1016,7 hPa 0,0 l/m 0,0 km/h (0 Bft) N-NW 337 -0,7 C -0,3 C 0,0 km/h (0 Bft)
05.01.2014 21:55 -0,4 C 97 % 1016,7 hPa 0,0 l/m 0,0 km/h (0 Bft) S-SW 202 -0,8 C -0,4 C 0,0 km/h (0 Bft)
05.01.2014 22:00 -0,4 C 97 % 1016,7 hPa 0,0 l/m 0,0 km/h (0 Bft) W 270 -0,8 C -0,6 C 0,0 km/h (0 Bft)
05.01.2014 22:05 -0,4 C 97 % 1016,6 hPa 0,0 l/m 0,0 km/h (0 Bft) W 270 -0,8 C -0,7 C 0,0 km/h (0 Bft)
05.01.2014 22:10 -0,8 C 97 % 1016,6 hPa 0,0 l/m 0,0 km/h (0 Bft) W 270 -1,2 C -0,9 C 0,0 km/h (0 Bft)
05.01.2014 22:15 -0,9 C 97 % 1016,6 hPa 0,0 l/m 0,0 km/h (0 Bft) W 270 -1,3 C -1,1 C 0,0 km/h (0 Bft)
05.01.2014 22:20 -0,7 C 97 % 1016,6 hPa 0,0 l/m 0,0 km/h (0 Bft) W-SW 247 -1,1 C -1,3 C 0,0 km/h (0 Bft)
05.01.2014 22:25 -0,6 C 97 % 1015,8 hPa 0,0 l/m 0,0 km/h (0 Bft) S-SW 202 -1,0 C -1,3 C 0,0 km/h (0 Bft)
05.01.2014 22:30 -0,6 C 97 % 1015,8 hPa 0,0 l/m 0,0 km/h (0 Bft) W-SW 247 -1,0 C -1,5 C 0,0 km/h (0 Bft)
05.01.2014 22:35 -0,6 C 97 % 1015,8 hPa 0,0 l/m 0,0 km/h (0 Bft) O 90 -1,0 C -1,6 C 0,0 km/h (0 Bft)
05.01.2014 22:40 -0,5 C 97 % 1015,8 hPa 0,0 l/m 0,0 km/h (0 Bft) NO 45 -0,9 C -1,6 C 0,0 km/h (0 Bft)
05.01.2014 22:45 -0,6 C 97 % 1015,8 hPa 0,0 l/m 0,0 km/h (0 Bft) NO 45 -1,0 C -1,7 C 0,0 km/h (0 Bft)
05.01.2014 22:50 -0,6 C 97 % 1015,8 hPa 0,0 l/m 0,3 km/h (0 Bft) NO 45 -1,0 C -1,7 C 1,8 km/h (1 Bft)
05.01.2014 22:55 -0,5 C 97 % 1015,8 hPa 0,0 l/m 0,5 km/h (0 Bft) O-NO 67 -0,9 C -1,3 C 1,6 km/h (1 Bft)
05.01.2014 23:00 -0,8 C 97 % 1015,8 hPa 0,0 l/m 0,3 km/h (0 Bft) O-NO 67 -1,2 C -1,0 C 0,0 km/h (0 Bft)
05.01.2014 23:05 -0,9 C 97 % 1015,8 hPa 0,0 l/m 0,0 km/h (0 Bft) O-NO 67 -1,3 C -1,1 C 0,0 km/h (0 Bft)
05.01.2014 23:10 -0,6 C 97 % 1015,8 hPa 0,0 l/m 0,6 km/h (0 Bft) O-NO 67 -1,0 C -1,0 C 0,0 km/h (0 Bft)
05.01.2014 23:15 -0,9 C 97 % 1015,8 hPa 0,0 l/m 1,3 km/h (1 Bft) O-NO 67 -1,3 C -1,0 C 2,7 km/h (1 Bft)
05.01.2014 23:20 -1,2 C 97 % 1015,8 hPa 0,0 l/m 1,4 km/h (1 Bft) O-NO 67 -1,6 C -1,4 C 2,7 km/h (1 Bft)
05.01.2014 23:25 -1,2 C 97 % 1015,7 hPa 0,0 l/m 1,1 km/h (1 Bft) O-NO 67 -1,6 C -1,5 C 0,0 km/h (0 Bft)
05.01.2014 23:30 -1,2 C 97 % 1015,7 hPa 0,0 l/m 0,5 km/h (0 Bft) O-NO 67 -1,6 C -1,7 C 0,0 km/h (0 Bft)
05.01.2014 23:35 -1,4 C 97 % 1015,7 hPa 0,0 l/m 0,0 km/h (0 Bft) O-NO 67 -1,8 C -1,7 C 0,0 km/h (0 Bft)
05.01.2014 23:40 -1,5 C 97 % 1015,7 hPa 0,0 l/m 0,0 km/h (0 Bft) O-NO 67 -1,9 C -1,8 C 0,0 km/h (0 Bft)
05.01.2014 23:45 -1,4 C 97 % 1015,7 hPa 0,0 l/m 0,0 km/h (0 Bft) O-NO 67 -1,8 C -1,9 C 0,0 km/h (0 Bft)
05.01.2014 23:50 -1,4 C 97 % 1015,7 hPa 0,0 l/m 0,2 km/h (0 Bft) O-NO 67 -1,8 C -1,9 C 0,0 km/h (0 Bft)
05.01.2014 23:55 -1,5 C 97 % 1015,7 hPa 0,0 l/m 0,3 km/h (0 Bft) O-NO 67 -1,9 C -1,9 C 0,0 km/h (0 Bft)
_ Min-Zeit 23:55 06:25 02:00 - 23:45 - - 23:55 08:10 23:55
Minimum _ -1,5 C 91 % 1002,1 hPa - 0,0 km/h (0 Bft) - - -1,9 C -7,3 C 0,0 km/h (0 Bft)
_ Max-Zeit 05:05 23:55 21:40 23:55 05:15 - - 05:05 02:05 05:10
Maximum _ 4,5 C 97 % 1016,9 hPa 0,0 l/m 17,7 km/h
S (3 Bft)
- - 3,8 C 4,8 C 37,7 km/h
S (5 Bft)
Durchschnitt _ 1,9 C 95 % 1010,7 hPa #0,0 l/m 4,6 km/h (1 Bft) S - 1,3 C 0,5 C 5,6 km/h (1 Bft)